Aérodrome :
LOGIN :

S'inscrire | Disclaimer

   EN    FR    IT 

 










Légende :    VFR   VFR Marginal   IFR   IFR Intensif   IFR Très Intensif
Visi : 
Plafond : 
>= 8 km
>= 3000ft
5 à 8 km
1000 à 3000 ft
1500m à 5 km
500 à 1000 ft
800 à 1500m
200 à 500 ft
< 800m
< 200 ft
Symboles :   Orages  Brouillard  Fortes neiges  Fortes précipitations  Vent > 20 kt
SIGMETs :   Divers  Orages  Givrage  Turbulence  Onde Orograph.  Cendres Volcan.






- Altitude de l'aérodrome : 138 ft
- Code IATA : BIO


LEBB - Bilbao

DERNIER METAR :
  • 171040Z VRB01KT 6000 RA BKN030 09/07 Q1009 NOSIG

METARs EXPIRÉS :
  • 171030Z VRB03KT 9999 BKN030 09/07 Q1009 TEMPO RA
  • 171000Z 11005KT 070V160 9999 -RA FEW030 BKN042 09/07 Q1009 TEMPO RA
  • 170930Z VRB03KT 9999 -RA FEW030 SCT044 BKN050 09/06 Q1010 TEMPO RA
  • 170900Z VRB03KT 9000 -RA BKN034 08/06 Q1010 RERA TEMPO RA
  • 170830Z VRB01KT 8000 RA BKN035 08/06 Q1010 NOSIG
  • 170800Z 17003KT 140V230 9999 -RA BKN034 09/06 Q1010 TEMPO RA

TAF TAF LEBB
Valide du 17 à 06h jusqu'au 18 à 06h UTC


170500Z 1706/1806 22009KT 9999 SCT020 BKN030 TX10/1714Z TN06/1806Z
BECMG 1712/1714 27010KT
TEMPO 1712/1716 27015G25KT
PROB30
TEMPO 1706/1708 4500 -RA BR
TEMPO 1708/1724 3000 RA SHRA BKN020TCU
PROB40
TEMPO 1715/1721 2000 +RA



MET'MAP, la Météo Aéronautique d'un coup d'oeil ! - Copyright ORBIFLY Décembre 2007 - Disclaimer

ORBIFLY MET'MAP TEAM :

Programmation & Développement : Alexandra Zaïnal
Conception & Développement : Baudouin d'Aumeries
Co-Programmation & Développement : Marc-Olivier Méhu
Soutien technique & logistique : Manuel Goepfert

Contact : metmap@orbifly.com




SOURCES & CREDITS :

   NOAA